KAVL/AVL METAR and TAF weather

Enter ICAO airport designator
Station Type Date Time Source
KAVL METAR 2019/10/23 07:54 UTC NOAA

KAVL 230754Z AUTO 34012KT 10SM CLR 08/03 A3007 RMK AO2 SLP168 T00830033 $


Station Type Date Time Source
KAVL Decoded METAR 2019/10/23 07:54 UTC NOAA

ASHEVILLE REGIONAL AIRPORT, NC, United States (KAVL) 35-26N 82-32W 670M
Oct 23, 2019 - 03:54 AM EDT / 2019.10.23 0754 UTC
Wind: from the NNW (340 degrees) at 14 MPH (12 KT):0
Visibility: 10 mile(s):0
Sky conditions: clear
Temperature: 46.9 F (8.3 C)
Dew Point: 37.9 F (3.3 C)
Relative Humidity: 70%
Pressure (altimeter): 30.07 in. Hg (1018 hPa)
ob: KAVL 230754Z AUTO 34012KT 10SM CLR 08/03 A3007 RMK AO2 SLP168 T00830033
cycle: 8

Station Type Date Time Source
KAVL TAF 2019/10/23 06:34 UTC NOAA

TAF KAVL 230532Z 2306/2406 36007KT P6SM SKC
FM231300 35010G18KT P6SM SKC
FM231800 34006KT P6SM SKC
FM240100 32003KT P6SM SKC
FM240300 00000KT P6SM SKC

Example: see airport list